sensor_id;sensor_type;location;lat;lon;timestamp;temperature;humidity
12264;DHT22;6194;49.010;8.414;2023-03-01T00:01:09;-0.80;99.90
12264;DHT22;6194;49.010;8.414;2023-03-01T00:03:35;-0.80;99.90
12264;DHT22;6194;49.010;8.414;2023-03-01T00:06:02;-0.80;99.90
12264;DHT22;6194;49.010;8.414;2023-03-01T00:08:28;-0.80;99.90
12264;DHT22;6194;49.010;8.414;2023-03-01T00:11:07;-0.70;99.90
12264;DHT22;6194;49.010;8.414;2023-03-01T00:13:34;-0.80;99.90
12264;DHT22;6194;49.010;8.414;2023-03-01T00:16:05;-0.80;99.90
12264;DHT22;6194;49.010;8.414;2023-03-01T00:18:31;-0.80;99.90
12264;DHT22;6194;49.010;8.414;2023-03-01T00:20:57;-0.80;99.90
12264;DHT22;6194;49.010;8.414;2023-03-01T00:23:23;-0.80;99.90
12264;DHT22;6194;49.010;8.414;2023-03-01T00:25:50;-0.80;99.90
12264;DHT22;6194;49.010;8.414;2023-03-01T00:28:16;-0.80;99.90
12264;DHT22;6194;49.010;8.414;2023-03-01T00:30:42;-0.70;99.90
12264;DHT22;6194;49.010;8.414;2023-03-01T00:33:07;-0.80;99.90
12264;DHT22;6194;49.010;8.414;2023-03-01T00:35:34;-0.80;99.90
12264;DHT22;6194;49.010;8.414;2023-03-01T00:38:00;-0.80;99.90
12264;DHT22;6194;49.010;8.414;2023-03-01T00:40:27;-0.90;99.90
12264;DHT22;6194;49.010;8.414;2023-03-01T00:42:52;-0.90;99.90
12264;DHT22;6194;49.010;8.414;2023-03-01T00:45:18;-0.90;99.90
12264;DHT22;6194;49.010;8.414;2023-03-01T00:47:44;-1.00;99.90
12264;DHT22;6194;49.010;8.414;2023-03-01T00:50:10;-1.10;99.90
12264;DHT22;6194;49.010;8.414;2023-03-01T00:52:36;-1.10;99.90
12264;DHT22;6194;49.010;8.414;2023-03-01T00:55:02;-1.10;99.90
12264;DHT22;6194;49.010;8.414;2023-03-01T00:57:28;-1.20;99.90
12264;DHT22;6194;49.010;8.414;2023-03-01T00:59:53;-1.20;99.90
12264;DHT22;6194;49.010;8.414;2023-03-01T01:02:20;-1.30;99.90
12264;DHT22;6194;49.010;8.414;2023-03-01T01:04:47;-1.30;99.90
12264;DHT22;6194;49.010;8.414;2023-03-01T01:07:13;-1.20;99.90
12264;DHT22;6194;49.010;8.414;2023-03-01T01:09:39;-1.20;99.90
12264;DHT22;6194;49.010;8.414;2023-03-01T01:12:05;-1.10;99.90
12264;DHT22;6194;49.010;8.414;2023-03-01T01:14:31;-1.10;99.90
12264;DHT22;6194;49.010;8.414;2023-03-01T01:16:57;-1.20;99.90
12264;DHT22;6194;49.010;8.414;2023-03-01T01:19:23;-1.20;99.90
12264;DHT22;6194;49.010;8.414;2023-03-01T01:21:49;-1.20;99.90
12264;DHT22;6194;49.010;8.414;2023-03-01T01:24:15;-1.20;99.90
12264;DHT22;6194;49.010;8.414;2023-03-01T01:26:41;-1.20;99.90
12264;DHT22;6194;49.010;8.414;2023-03-01T01:29:07;-1.10;99.90
12264;DHT22;6194;49.010;8.414;2023-03-01T01:31:34;-1.10;99.90
12264;DHT22;6194;49.010;8.414;2023-03-01T01:34:01;-1.10;99.90
12264;DHT22;6194;49.010;8.414;2023-03-01T01:36:27;-1.20;99.90
12264;DHT22;6194;49.010;8.414;2023-03-01T01:38:53;-1.30;99.90
12264;DHT22;6194;49.010;8.414;2023-03-01T01:41:20;-1.30;99.90
12264;DHT22;6194;49.010;8.414;2023-03-01T01:44:13;-1.30;99.90
12264;DHT22;6194;49.010;8.414;2023-03-01T01:46:49;-1.30;99.90
12264;DHT22;6194;49.010;8.414;2023-03-01T01:49:32;-1.40;99.90
12264;DHT22;6194;49.010;8.414;2023-03-01T01:54:54;-1.30;99.90
12264;DHT22;6194;49.010;8.414;2023-03-01T01:57:25;-1.40;99.90
12264;DHT22;6194;49.010;8.414;2023-03-01T01:59:54;-1.30;99.90
12264;DHT22;6194;49.010;8.414;2023-03-01T02:02:20;-1.30;99.90
12264;DHT22;6194;49.010;8.414;2023-03-01T02:04:48;-1.30;99.90
12264;DHT22;6194;49.010;8.414;2023-03-01T02:07:20;-1.30;99.90
12264;DHT22;6194;49.010;8.414;2023-03-01T02:09:49;-1.30;99.90
12264;DHT22;6194;49.010;8.414;2023-03-01T02:12:17;-1.40;99.90
12264;DHT22;6194;49.010;8.414;2023-03-01T02:14:43;-1.40;99.90
12264;DHT22;6194;49.010;8.414;2023-03-01T02:17:10;-1.30;99.90
12264;DHT22;6194;49.010;8.414;2023-03-01T02:19:45;-1.30;99.90
12264;DHT22;6194;49.010;8.414;2023-03-01T02:27:23;-1.30;99.90
12264;DHT22;6194;49.010;8.414;2023-03-01T02:29:51;-1.30;99.90
12264;DHT22;6194;49.010;8.414;2023-03-01T02:32:17;-1.30;99.90
12264;DHT22;6194;49.010;8.414;2023-03-01T02:34:56;-1.20;99.90
12264;DHT22;6194;49.010;8.414;2023-03-01T02:37:23;-1.20;99.90
12264;DHT22;6194;49.010;8.414;2023-03-01T02:40:12;-1.10;99.90
12264;DHT22;6194;49.010;8.414;2023-03-01T02:42:51;-1.10;99.90
12264;DHT22;6194;49.010;8.414;2023-03-01T02:45:17;-1.10;99.90
12264;DHT22;6194;49.010;8.414;2023-03-01T02:47:43;-1.10;99.90
12264;DHT22;6194;49.010;8.414;2023-03-01T02:53:39;-1.20;99.90
12264;DHT22;6194;49.010;8.414;2023-03-01T02:56:08;-1.20;99.90
12264;DHT22;6194;49.010;8.414;2023-03-01T02:58:41;-1.20;99.90
12264;DHT22;6194;49.010;8.414;2023-03-01T03:01:12;-1.30;99.90
12264;DHT22;6194;49.010;8.414;2023-03-01T03:03:39;-1.30;99.90
12264;DHT22;6194;49.010;8.414;2023-03-01T03:06:04;-1.40;99.90
12264;DHT22;6194;49.010;8.414;2023-03-01T03:08:30;-1.40;99.90
12264;DHT22;6194;49.010;8.414;2023-03-01T03:10:56;-1.40;99.90
12264;DHT22;6194;49.010;8.414;2023-03-01T03:13:21;-1.40;99.90
12264;DHT22;6194;49.010;8.414;2023-03-01T03:15:47;-1.40;99.90
12264;DHT22;6194;49.010;8.414;2023-03-01T03:18:15;-1.40;99.90
12264;DHT22;6194;49.010;8.414;2023-03-01T03:20:43;-1.40;99.90
12264;DHT22;6194;49.010;8.414;2023-03-01T03:23:09;-1.40;99.90
12264;DHT22;6194;49.010;8.414;2023-03-01T03:25:34;-1.40;99.90
12264;DHT22;6194;49.010;8.414;2023-03-01T03:28:04;-1.40;99.90
12264;DHT22;6194;49.010;8.414;2023-03-01T03:30:36;-1.40;99.90
12264;DHT22;6194;49.010;8.414;2023-03-01T03:33:02;-1.40;99.90
12264;DHT22;6194;49.010;8.414;2023-03-01T03:35:29;-1.40;99.90
12264;DHT22;6194;49.010;8.414;2023-03-01T03:37:56;-1.40;99.90
12264;DHT22;6194;49.010;8.414;2023-03-01T03:40:36;-1.40;99.90
12264;DHT22;6194;49.010;8.414;2023-03-01T03:43:08;-1.40;99.90
12264;DHT22;6194;49.010;8.414;2023-03-01T03:45:34;-1.50;99.90
12264;DHT22;6194;49.010;8.414;2023-03-01T03:48:01;-1.50;99.90
12264;DHT22;6194;49.010;8.414;2023-03-01T03:50:26;-1.50;99.90
12264;DHT22;6194;49.010;8.414;2023-03-01T03:52:52;-1.60;99.90
12264;DHT22;6194;49.010;8.414;2023-03-01T03:55:18;-1.60;99.90
12264;DHT22;6194;49.010;8.414;2023-03-01T03:57:45;-1.60;99.90
12264;DHT22;6194;49.010;8.414;2023-03-01T04:00:17;-1.60;99.90
12264;DHT22;6194;49.010;8.414;2023-03-01T04:02:44;-1.60;99.90
12264;DHT22;6194;49.010;8.414;2023-03-01T04:05:11;-1.60;99.90
12264;DHT22;6194;49.010;8.414;2023-03-01T04:07:38;-1.70;99.90
12264;DHT22;6194;49.010;8.414;2023-03-01T04:10:05;-1.70;99.90
12264;DHT22;6194;49.010;8.414;2023-03-01T04:12:32;-1.70;99.90
12264;DHT22;6194;49.010;8.414;2023-03-01T04:14:59;-1.70;99.90
12264;DHT22;6194;49.010;8.414;2023-03-01T04:17:25;-1.70;99.90
12264;DHT22;6194;49.010;8.414;2023-03-01T04:19:51;-1.70;99.90
12264;DHT22;6194;49.010;8.414;2023-03-01T04:22:16;-1.70;99.90
12264;DHT22;6194;49.010;8.414;2023-03-01T04:24:44;-1.70;99.90
12264;DHT22;6194;49.010;8.414;2023-03-01T04:27:10;-1.70;99.90
12264;DHT22;6194;49.010;8.414;2023-03-01T04:29:36;-1.70;99.90
12264;DHT22;6194;49.010;8.414;2023-03-01T04:32:01;-1.80;99.90
12264;DHT22;6194;49.010;8.414;2023-03-01T04:34:28;-1.80;99.90
12264;DHT22;6194;49.010;8.414;2023-03-01T04:36:54;-1.90;99.90
12264;DHT22;6194;49.010;8.414;2023-03-01T04:39:20;-1.90;99.90
12264;DHT22;6194;49.010;8.414;2023-03-01T04:41:46;-1.80;99.90
12264;DHT22;6194;49.010;8.414;2023-03-01T04:44:12;-1.90;99.90
12264;DHT22;6194;49.010;8.414;2023-03-01T04:46:38;-1.90;99.90
12264;DHT22;6194;49.010;8.414;2023-03-01T04:49:04;-1.90;99.90
12264;DHT22;6194;49.010;8.414;2023-03-01T04:51:31;-1.80;99.90
12264;DHT22;6194;49.010;8.414;2023-03-01T04:53:58;-1.80;99.90
12264;DHT22;6194;49.010;8.414;2023-03-01T04:56:23;-1.80;99.90
12264;DHT22;6194;49.010;8.414;2023-03-01T04:58:49;-1.80;99.90
12264;DHT22;6194;49.010;8.414;2023-03-01T05:01:18;-1.90;99.90
12264;DHT22;6194;49.010;8.414;2023-03-01T05:03:47;-1.90;99.90
12264;DHT22;6194;49.010;8.414;2023-03-01T05:06:13;-1.90;99.90
12264;DHT22;6194;49.010;8.414;2023-03-01T05:08:39;-1.80;99.90
12264;DHT22;6194;49.010;8.414;2023-03-01T05:11:05;-1.80;99.90
12264;DHT22;6194;49.010;8.414;2023-03-01T05:13:35;-1.70;99.90
12264;DHT22;6194;49.010;8.414;2023-03-01T05:16:02;-1.70;99.90
12264;DHT22;6194;49.010;8.414;2023-03-01T05:18:30;-1.70;99.90
12264;DHT22;6194;49.010;8.414;2023-03-01T05:21:02;-1.70;99.90
12264;DHT22;6194;49.010;8.414;2023-03-01T05:23:32;-1.50;99.90
12264;DHT22;6194;49.010;8.414;2023-03-01T05:26:02;-1.50;99.90
12264;DHT22;6194;49.010;8.414;2023-03-01T05:28:30;-1.60;99.90
12264;DHT22;6194;49.010;8.414;2023-03-01T05:30:56;-1.60;99.90
12264;DHT22;6194;49.010;8.414;2023-03-01T05:33:22;-1.60;99.90
12264;DHT22;6194;49.010;8.414;2023-03-01T05:35:49;-1.70;99.90
12264;DHT22;6194;49.010;8.414;2023-03-01T05:38:15;-1.70;99.90
12264;DHT22;6194;49.010;8.414;2023-03-01T05:40:42;-1.70;99.90
12264;DHT22;6194;49.010;8.414;2023-03-01T05:43:09;-1.80;99.90
12264;DHT22;6194;49.010;8.414;2023-03-01T05:45:36;-1.60;99.90
12264;DHT22;6194;49.010;8.414;2023-03-01T05:48:03;-1.60;99.90
12264;DHT22;6194;49.010;8.414;2023-03-01T05:50:32;-1.60;99.90
12264;DHT22;6194;49.010;8.414;2023-03-01T05:53:12;-1.50;99.90
12264;DHT22;6194;49.010;8.414;2023-03-01T05:55:38;-1.60;99.90
12264;DHT22;6194;49.010;8.414;2023-03-01T05:58:07;-1.60;99.90
12264;DHT22;6194;49.010;8.414;2023-03-01T06:00:33;-1.70;99.90
12264;DHT22;6194;49.010;8.414;2023-03-01T06:03:00;-1.70;99.90
12264;DHT22;6194;49.010;8.414;2023-03-01T06:05:26;-1.70;99.90
12264;DHT22;6194;49.010;8.414;2023-03-01T06:07:53;-1.80;99.90
12264;DHT22;6194;49.010;8.414;2023-03-01T06:10:20;-1.80;99.90
12264;DHT22;6194;49.010;8.414;2023-03-01T06:12:46;-1.80;99.90
12264;DHT22;6194;49.010;8.414;2023-03-01T06:15:14;-1.70;99.90
12264;DHT22;6194;49.010;8.414;2023-03-01T06:17:42;-1.80;99.90
12264;DHT22;6194;49.010;8.414;2023-03-01T06:20:11;-1.70;99.90
12264;DHT22;6194;49.010;8.414;2023-03-01T06:22:37;-1.80;99.90
12264;DHT22;6194;49.010;8.414;2023-03-01T06:25:03;-1.80;99.90
12264;DHT22;6194;49.010;8.414;2023-03-01T06:27:29;-1.80;99.90
12264;DHT22;6194;49.010;8.414;2023-03-01T06:29:54;-1.90;99.90
12264;DHT22;6194;49.010;8.414;2023-03-01T06:32:20;-2.00;99.90
12264;DHT22;6194;49.010;8.414;2023-03-01T06:34:45;-2.00;99.90
12264;DHT22;6194;49.010;8.414;2023-03-01T06:37:11;-2.00;99.90
12264;DHT22;6194;49.010;8.414;2023-03-01T06:39:37;-2.00;99.90
12264;DHT22;6194;49.010;8.414;2023-03-01T06:42:03;-2.10;99.90
12264;DHT22;6194;49.010;8.414;2023-03-01T06:44:28;-2.10;99.90
12264;DHT22;6194;49.010;8.414;2023-03-01T06:46:54;-2.00;99.90
12264;DHT22;6194;49.010;8.414;2023-03-01T06:49:20;-2.00;99.90
12264;DHT22;6194;49.010;8.414;2023-03-01T06:51:46;-1.90;99.90
12264;DHT22;6194;49.010;8.414;2023-03-01T06:54:12;-1.70;99.90
12264;DHT22;6194;49.010;8.414;2023-03-01T06:56:38;-1.60;99.90
12264;DHT22;6194;49.010;8.414;2023-03-01T06:59:03;-1.50;99.90
12264;DHT22;6194;49.010;8.414;2023-03-01T07:01:30;-1.40;99.90
12264;DHT22;6194;49.010;8.414;2023-03-01T07:03:56;-1.30;99.90
12264;DHT22;6194;49.010;8.414;2023-03-01T07:06:22;-1.20;99.90
12264;DHT22;6194;49.010;8.414;2023-03-01T07:08:48;-1.10;99.90
12264;DHT22;6194;49.010;8.414;2023-03-01T07:11:14;-1.00;99.90
12264;DHT22;6194;49.010;8.414;2023-03-01T07:13:41;-1.00;99.90
12264;DHT22;6194;49.010;8.414;2023-03-01T07:16:07;-1.00;99.90
12264;DHT22;6194;49.010;8.414;2023-03-01T07:18:33;-0.30;99.90
12264;DHT22;6194;49.010;8.414;2023-03-01T07:21:04;-0.90;99.90
12264;DHT22;6194;49.010;8.414;2023-03-01T07:23:29;-0.80;99.90
12264;DHT22;6194;49.010;8.414;2023-03-01T07:25:55;-0.80;99.90
12264;DHT22;6194;49.010;8.414;2023-03-01T07:28:23;-0.70;99.90
12264;DHT22;6194;49.010;8.414;2023-03-01T07:30:49;-0.70;99.90
12264;DHT22;6194;49.010;8.414;2023-03-01T07:33:14;-0.60;99.90
12264;DHT22;6194;49.010;8.414;2023-03-01T07:35:40;-0.50;99.90
12264;DHT22;6194;49.010;8.414;2023-03-01T07:38:06;-0.40;99.90
12264;DHT22;6194;49.010;8.414;2023-03-01T07:40:31;-0.40;99.90
12264;DHT22;6194;49.010;8.414;2023-03-01T07:42:58;-0.10;99.90
12264;DHT22;6194;49.010;8.414;2023-03-01T07:45:25;-0.30;99.90
12264;DHT22;6194;49.010;8.414;2023-03-01T07:47:51;-0.30;99.90
12264;DHT22;6194;49.010;8.414;2023-03-01T07:50:18;-0.30;99.90
12264;DHT22;6194;49.010;8.414;2023-03-01T07:52:46;-0.20;99.90
12264;DHT22;6194;49.010;8.414;2023-03-01T07:55:12;-0.20;99.90
12264;DHT22;6194;49.010;8.414;2023-03-01T07:57:38;-0.10;99.90
12264;DHT22;6194;49.010;8.414;2023-03-01T08:00:06;-0.10;99.90
12264;DHT22;6194;49.010;8.414;2023-03-01T08:02:33;0.00;99.90
12264;DHT22;6194;49.010;8.414;2023-03-01T08:04:59;0.00;99.90
12264;DHT22;6194;49.010;8.414;2023-03-01T08:07:24;0.00;99.90
12264;DHT22;6194;49.010;8.414;2023-03-01T08:09:50;0.10;99.90
12264;DHT22;6194;49.010;8.414;2023-03-01T08:12:15;0.10;99.90
12264;DHT22;6194;49.010;8.414;2023-03-01T08:14:44;0.20;99.90
12264;DHT22;6194;49.010;8.414;2023-03-01T08:17:09;0.20;99.90
12264;DHT22;6194;49.010;8.414;2023-03-01T08:19:35;0.30;99.90
12264;DHT22;6194;49.010;8.414;2023-03-01T08:22:04;0.40;99.90
12264;DHT22;6194;49.010;8.414;2023-03-01T08:24:29;0.40;99.90
12264;DHT22;6194;49.010;8.414;2023-03-01T08:26:55;0.50;99.90
12264;DHT22;6194;49.010;8.414;2023-03-01T08:29:21;0.50;99.90
12264;DHT22;6194;49.010;8.414;2023-03-01T08:31:47;0.60;99.90
12264;DHT22;6194;49.010;8.414;2023-03-01T08:34:15;0.70;99.90
12264;DHT22;6194;49.010;8.414;2023-03-01T08:36:43;0.70;99.90
12264;DHT22;6194;49.010;8.414;2023-03-01T08:39:10;0.80;99.90
12264;DHT22;6194;49.010;8.414;2023-03-01T08:41:36;0.80;99.90
12264;DHT22;6194;49.010;8.414;2023-03-01T08:44:03;0.80;99.90
12264;DHT22;6194;49.010;8.414;2023-03-01T08:46:35;0.90;99.90
12264;DHT22;6194;49.010;8.414;2023-03-01T08:49:04;1.00;99.90
12264;DHT22;6194;49.010;8.414;2023-03-01T08:51:30;1.00;99.90
12264;DHT22;6194;49.010;8.414;2023-03-01T08:54:12;1.10;99.90
12264;DHT22;6194;49.010;8.414;2023-03-01T08:56:38;1.20;99.90
12264;DHT22;6194;49.010;8.414;2023-03-01T08:59:04;1.40;99.90
12264;DHT22;6194;49.010;8.414;2023-03-01T09:01:30;1.30;99.90
12264;DHT22;6194;49.010;8.414;2023-03-01T09:03:55;1.30;99.90
12264;DHT22;6194;49.010;8.414;2023-03-01T09:06:21;1.30;99.90
12264;DHT22;6194;49.010;8.414;2023-03-01T09:08:50;1.30;99.90
12264;DHT22;6194;49.010;8.414;2023-03-01T09:11:19;1.30;99.90
12264;DHT22;6194;49.010;8.414;2023-03-01T09:13:46;1.40;99.90
12264;DHT22;6194;49.010;8.414;2023-03-01T09:16:14;1.50;99.90
12264;DHT22;6194;49.010;8.414;2023-03-01T09:18:40;1.60;99.90
12264;DHT22;6194;49.010;8.414;2023-03-01T09:21:09;1.60;99.90
12264;DHT22;6194;49.010;8.414;2023-03-01T09:23:43;1.70;99.90
12264;DHT22;6194;49.010;8.414;2023-03-01T09:26:20;1.80;99.90
12264;DHT22;6194;49.010;8.414;2023-03-01T09:28:48;1.90;99.90
12264;DHT22;6194;49.010;8.414;2023-03-01T09:31:14;1.90;99.90
12264;DHT22;6194;49.010;8.414;2023-03-01T09:33:41;2.00;99.90
12264;DHT22;6194;49.010;8.414;2023-03-01T09:36:12;2.10;99.90
12264;DHT22;6194;49.010;8.414;2023-03-01T09:38:39;2.20;99.90
12264;DHT22;6194;49.010;8.414;2023-03-01T09:43:50;2.40;99.90
12264;DHT22;6194;49.010;8.414;2023-03-01T09:46:20;2.40;99.90
12264;DHT22;6194;49.010;8.414;2023-03-01T09:49:03;2.50;99.90
12264;DHT22;6194;49.010;8.414;2023-03-01T09:51:34;2.50;99.90
12264;DHT22;6194;49.010;8.414;2023-03-01T09:54:04;2.50;99.90
12264;DHT22;6194;49.010;8.414;2023-03-01T09:56:34;2.80;99.90
12264;DHT22;6194;49.010;8.414;2023-03-01T10:06:55;2.90;99.90
12264;DHT22;6194;49.010;8.414;2023-03-01T10:09:21;3.00;99.90
12264;DHT22;6194;49.010;8.414;2023-03-01T10:11:50;3.10;99.90
12264;DHT22;6194;49.010;8.414;2023-03-01T10:14:43;3.20;99.90
12264;DHT22;6194;49.010;8.414;2023-03-01T10:17:43;3.40;99.90
12264;DHT22;6194;49.010;8.414;2023-03-01T10:22:41;3.40;99.90
12264;DHT22;6194;49.010;8.414;2023-03-01T10:25:13;3.50;99.90
12264;DHT22;6194;49.010;8.414;2023-03-01T10:27:54;3.70;99.90
12264;DHT22;6194;49.010;8.414;2023-03-01T10:30:34;3.80;99.90
12264;DHT22;6194;49.010;8.414;2023-03-01T10:33:01;3.80;99.90
12264;DHT22;6194;49.010;8.414;2023-03-01T10:35:31;3.80;99.90
12264;DHT22;6194;49.010;8.414;2023-03-01T10:38:09;3.90;99.90
12264;DHT22;6194;49.010;8.414;2023-03-01T10:40:36;4.10;99.90
12264;DHT22;6194;49.010;8.414;2023-03-01T10:43:14;4.10;99.90
12264;DHT22;6194;49.010;8.414;2023-03-01T10:45:40;4.10;99.90
12264;DHT22;6194;49.010;8.414;2023-03-01T10:48:21;4.20;99.90
12264;DHT22;6194;49.010;8.414;2023-03-01T10:58:30;4.30;99.90
12264;DHT22;6194;49.010;8.414;2023-03-01T11:01:00;4.40;99.90
12264;DHT22;6194;49.010;8.414;2023-03-01T11:03:29;4.50;99.90
12264;DHT22;6194;49.010;8.414;2023-03-01T11:06:00;4.50;99.90
12264;DHT22;6194;49.010;8.414;2023-03-01T11:13:35;4.90;99.90
12264;DHT22;6194;49.010;8.414;2023-03-01T11:16:03;5.00;99.90
12264;DHT22;6194;49.010;8.414;2023-03-01T11:18:30;5.10;99.90
12264;DHT22;6194;49.010;8.414;2023-03-01T11:20:58;4.90;99.90
12264;DHT22;6194;49.010;8.414;2023-03-01T11:23:24;4.90;99.90
12264;DHT22;6194;49.010;8.414;2023-03-01T11:26:00;4.80;99.90
12264;DHT22;6194;49.010;8.414;2023-03-01T11:28:28;5.00;99.90
12264;DHT22;6194;49.010;8.414;2023-03-01T11:31:06;5.00;99.90
12264;DHT22;6194;49.010;8.414;2023-03-01T11:38:55;5.20;99.90
12264;DHT22;6194;49.010;8.414;2023-03-01T11:41:25;5.20;99.90
12264;DHT22;6194;49.010;8.414;2023-03-01T11:57:01;5.50;99.90
12264;DHT22;6194;49.010;8.414;2023-03-01T12:08:04;5.70;99.90
12264;DHT22;6194;49.010;8.414;2023-03-01T12:16:56;6.00;99.90
12264;DHT22;6194;49.010;8.414;2023-03-01T12:38:38;6.00;99.90
12264;DHT22;6194;49.010;8.414;2023-03-01T12:44:30;6.30;99.90
12264;DHT22;6194;49.010;8.414;2023-03-01T12:47:07;6.30;99.90
12264;DHT22;6194;49.010;8.414;2023-03-01T12:49:39;6.40;99.90
12264;DHT22;6194;49.010;8.414;2023-03-01T12:54:49;6.40;99.90
12264;DHT22;6194;49.010;8.414;2023-03-01T13:00:25;6.40;99.90
12264;DHT22;6194;49.010;8.414;2023-03-01T13:05:46;6.60;99.90
12264;DHT22;6194;49.010;8.414;2023-03-01T13:08:27;6.60;99.90
12264;DHT22;6194;49.010;8.414;2023-03-01T13:11:05;6.60;99.90
12264;DHT22;6194;49.010;8.414;2023-03-01T13:13:32;6.80;99.90
12264;DHT22;6194;49.010;8.414;2023-03-01T13:16:22;6.80;99.90
12264;DHT22;6194;49.010;8.414;2023-03-01T13:18:48;6.90;99.90
12264;DHT22;6194;49.010;8.414;2023-03-01T13:21:29;6.80;99.90
12264;DHT22;6194;49.010;8.414;2023-03-01T13:23:56;6.70;99.90
12264;DHT22;6194;49.010;8.414;2023-03-01T13:26:21;6.80;99.90
12264;DHT22;6194;49.010;8.414;2023-03-01T13:28:49;6.80;99.90
12264;DHT22;6194;49.010;8.414;2023-03-01T13:33:48;7.10;99.90
12264;DHT22;6194;49.010;8.414;2023-03-01T13:49:57;7.40;99.90
12264;DHT22;6194;49.010;8.414;2023-03-01T13:52:54;7.40;99.90
12264;DHT22;6194;49.010;8.414;2023-03-01T14:03:27;7.40;99.90
12264;DHT22;6194;49.010;8.414;2023-03-01T14:06:07;7.40;99.90
12264;DHT22;6194;49.010;8.414;2023-03-01T14:08:35;7.40;99.90
12264;DHT22;6194;49.010;8.414;2023-03-01T14:11:33;7.50;99.90
12264;DHT22;6194;49.010;8.414;2023-03-01T14:14:29;7.50;99.90
12264;DHT22;6194;49.010;8.414;2023-03-01T14:19:43;7.50;99.90
12264;DHT22;6194;49.010;8.414;2023-03-01T14:22:25;7.50;99.90
12264;DHT22;6194;49.010;8.414;2023-03-01T14:27:54;7.40;99.90
12264;DHT22;6194;49.010;8.414;2023-03-01T14:30:30;7.40;99.90
12264;DHT22;6194;49.010;8.414;2023-03-01T14:32:59;7.50;99.90
12264;DHT22;6194;49.010;8.414;2023-03-01T14:35:27;7.40;99.90
12264;DHT22;6194;49.010;8.414;2023-03-01T14:37:53;7.30;99.90
12264;DHT22;6194;49.010;8.414;2023-03-01T14:40:28;7.40;99.90
12264;DHT22;6194;49.010;8.414;2023-03-01T14:42:57;7.30;99.90
12264;DHT22;6194;49.010;8.414;2023-03-01T14:45:27;7.40;99.90
12264;DHT22;6194;49.010;8.414;2023-03-01T14:47:55;7.40;99.90
12264;DHT22;6194;49.010;8.414;2023-03-01T14:50:27;7.50;99.90
12264;DHT22;6194;49.010;8.414;2023-03-01T14:52:59;7.60;99.90
12264;DHT22;6194;49.010;8.414;2023-03-01T14:57:52;7.50;99.90
12264;DHT22;6194;49.010;8.414;2023-03-01T15:00:27;7.50;99.90
12264;DHT22;6194;49.010;8.414;2023-03-01T15:02:55;7.50;99.90
12264;DHT22;6194;49.010;8.414;2023-03-01T15:05:32;7.60;99.90
12264;DHT22;6194;49.010;8.414;2023-03-01T15:08:00;7.60;99.90
12264;DHT22;6194;49.010;8.414;2023-03-01T15:10:29;7.60;99.90
12264;DHT22;6194;49.010;8.414;2023-03-01T15:12:55;7.50;99.90
12264;DHT22;6194;49.010;8.414;2023-03-01T15:17:56;7.40;99.90
12264;DHT22;6194;49.010;8.414;2023-03-01T15:20:26;7.50;99.90
12264;DHT22;6194;49.010;8.414;2023-03-01T15:22:53;7.50;99.90
12264;DHT22;6194;49.010;8.414;2023-03-01T15:25:23;7.60;99.90
12264;DHT22;6194;49.010;8.414;2023-03-01T15:27:50;7.60;99.90
12264;DHT22;6194;49.010;8.414;2023-03-01T15:30:34;7.70;99.90
12264;DHT22;6194;49.010;8.414;2023-03-01T15:35:57;7.60;99.90
12264;DHT22;6194;49.010;8.414;2023-03-01T15:38:50;7.70;99.90
12264;DHT22;6194;49.010;8.414;2023-03-01T15:41:31;7.60;99.90
12264;DHT22;6194;49.010;8.414;2023-03-01T15:43:59;7.90;99.90
12264;DHT22;6194;49.010;8.414;2023-03-01T15:46:35;7.60;99.90
12264;DHT22;6194;49.010;8.414;2023-03-01T15:51:54;7.70;99.90
12264;DHT22;6194;49.010;8.414;2023-03-01T15:54:22;7.60;99.90
12264;DHT22;6194;49.010;8.414;2023-03-01T15:56:49;7.60;99.90
12264;DHT22;6194;49.010;8.414;2023-03-01T15:59:16;7.60;99.90
12264;DHT22;6194;49.010;8.414;2023-03-01T16:01:42;7.50;99.90
12264;DHT22;6194;49.010;8.414;2023-03-01T16:04:16;7.50;99.90
12264;DHT22;6194;49.010;8.414;2023-03-01T16:06:50;7.40;99.90
12264;DHT22;6194;49.010;8.414;2023-03-01T16:09:21;7.40;99.90
12264;DHT22;6194;49.010;8.414;2023-03-01T16:11:47;7.40;99.90
12264;DHT22;6194;49.010;8.414;2023-03-01T16:14:13;7.70;99.90
12264;DHT22;6194;49.010;8.414;2023-03-01T16:16:40;7.30;99.90
12264;DHT22;6194;49.010;8.414;2023-03-01T16:19:05;7.30;99.90
12264;DHT22;6194;49.010;8.414;2023-03-01T16:21:31;7.30;99.90
12264;DHT22;6194;49.010;8.414;2023-03-01T16:23:56;7.20;99.90
12264;DHT22;6194;49.010;8.414;2023-03-01T16:26:22;7.20;99.90
12264;DHT22;6194;49.010;8.414;2023-03-01T16:28:48;7.20;99.90
12264;DHT22;6194;49.010;8.414;2023-03-01T16:31:17;7.20;99.90
12264;DHT22;6194;49.010;8.414;2023-03-01T16:33:44;7.10;99.90
12264;DHT22;6194;49.010;8.414;2023-03-01T16:36:16;7.00;99.90
12264;DHT22;6194;49.010;8.414;2023-03-01T16:38:42;7.00;99.90
12264;DHT22;6194;49.010;8.414;2023-03-01T16:41:16;6.90;99.90
12264;DHT22;6194;49.010;8.414;2023-03-01T16:43:42;6.90;99.90
12264;DHT22;6194;49.010;8.414;2023-03-01T16:46:12;6.80;99.90
12264;DHT22;6194;49.010;8.414;2023-03-01T16:48:38;6.80;99.90
12264;DHT22;6194;49.010;8.414;2023-03-01T16:51:05;6.70;99.90
12264;DHT22;6194;49.010;8.414;2023-03-01T16:53:33;6.70;99.90
12264;DHT22;6194;49.010;8.414;2023-03-01T16:55:59;6.60;99.90
12264;DHT22;6194;49.010;8.414;2023-03-01T16:58:25;6.50;99.90
12264;DHT22;6194;49.010;8.414;2023-03-01T17:00:52;6.40;99.90
12264;DHT22;6194;49.010;8.414;2023-03-01T17:03:22;6.40;99.90
12264;DHT22;6194;49.010;8.414;2023-03-01T17:05:48;6.40;99.90
12264;DHT22;6194;49.010;8.414;2023-03-01T17:08:14;6.30;99.90
12264;DHT22;6194;49.010;8.414;2023-03-01T17:10:39;6.20;99.90
12264;DHT22;6194;49.010;8.414;2023-03-01T17:13:08;6.10;99.90
12264;DHT22;6194;49.010;8.414;2023-03-01T17:15:34;6.10;99.90
12264;DHT22;6194;49.010;8.414;2023-03-01T17:18:00;6.00;99.90
12264;DHT22;6194;49.010;8.414;2023-03-01T17:20:26;6.00;99.90
12264;DHT22;6194;49.010;8.414;2023-03-01T17:22:52;5.90;99.90
12264;DHT22;6194;49.010;8.414;2023-03-01T17:25:18;5.90;99.90
12264;DHT22;6194;49.010;8.414;2023-03-01T17:27:44;5.80;99.90
12264;DHT22;6194;49.010;8.414;2023-03-01T17:30:11;5.70;99.90
12264;DHT22;6194;49.010;8.414;2023-03-01T17:32:37;5.60;99.90
12264;DHT22;6194;49.010;8.414;2023-03-01T17:35:03;5.60;99.90
12264;DHT22;6194;49.010;8.414;2023-03-01T17:37:28;5.50;99.90
12264;DHT22;6194;49.010;8.414;2023-03-01T17:39:54;5.50;99.90
12264;DHT22;6194;49.010;8.414;2023-03-01T17:42:20;5.40;99.90
12264;DHT22;6194;49.010;8.414;2023-03-01T17:44:45;5.30;99.90
12264;DHT22;6194;49.010;8.414;2023-03-01T17:47:11;5.30;99.90
12264;DHT22;6194;49.010;8.414;2023-03-01T17:49:36;5.30;99.90
12264;DHT22;6194;49.010;8.414;2023-03-01T17:52:02;5.20;99.90
12264;DHT22;6194;49.010;8.414;2023-03-01T17:54:28;5.20;99.90
12264;DHT22;6194;49.010;8.414;2023-03-01T17:56:54;5.20;99.90
12264;DHT22;6194;49.010;8.414;2023-03-01T17:59:20;5.20;99.90
12264;DHT22;6194;49.010;8.414;2023-03-01T18:01:46;5.20;99.90
12264;DHT22;6194;49.010;8.414;2023-03-01T18:04:12;5.10;99.90
12264;DHT22;6194;49.010;8.414;2023-03-01T18:06:38;5.40;99.90
12264;DHT22;6194;49.010;8.414;2023-03-01T18:09:05;5.10;99.90
12264;DHT22;6194;49.010;8.414;2023-03-01T18:11:33;5.00;99.90
12264;DHT22;6194;49.010;8.414;2023-03-01T18:13:59;4.90;99.90
12264;DHT22;6194;49.010;8.414;2023-03-01T18:16:25;4.80;99.90
12264;DHT22;6194;49.010;8.414;2023-03-01T18:18:53;4.80;99.90
12264;DHT22;6194;49.010;8.414;2023-03-01T18:21:19;4.80;99.90
12264;DHT22;6194;49.010;8.414;2023-03-01T18:23:46;4.80;99.90
12264;DHT22;6194;49.010;8.414;2023-03-01T18:26:13;4.80;99.90